Currently 66°F in San Jacinto, California, USA
66°F
66°F / 48°F
calm
0.00"
Sunday, January 17, 2021 9:51 AM PST

San Jacinto, California Weather Summary
Last 36 Hours

Temperature Winds Hourly Humidity Dewpoint
Time Report Norm Report Norm Max Gusts Precip. Rpt. Norm Rpt. Norm Pressure
1Sun 09:51 AM  66.0°F  55°F  calm  1 mph  1 mph  0.00"  27%  57%  30°F  40°F  30.09"
2Sun 09:50 AM  66.0°F  55°F  calm  1 mph  1 mph  ----  27%  57%  30°F  40°F  30.09"
Sun 09:00 AM  60.4°F  51°F  calm  1 mph  1 mph  0.00"  32%  64%  29°F  39°F  30.08"
Sun 08:00 AM  53.6°F  46°F  calm  1 mph  3 mph  0.00"  40%  72%  29°F  37°F  30.07"
Sun 07:00 AM  49.5°F  44°F  calm  1 mph  3 mph  0.00"  41%  75%  26°F  36°F  30.06"
Sun 06:00 AM  48.2°F  44°F  calm  1 mph  none  0.00"  45%  76%  27°F  36°F  30.05"
3Sun 05:55 AM  48.0°F  44°F  calm  1 mph  none  ----  45%  76%  27°F  36°F  30.05"
Sun 05:00 AM  48.7°F  44°F  calm  1 mph  none  0.00"  43%  75%  26°F  37°F  30.04"
Sun 04:00 AM  50.7°F  45°F  calm  calm  3 mph  0.00"  42%  74%  27°F  37°F  30.03"
Sun 03:00 AM  49.8°F  46°F  1 mph E  1 mph  3 mph  0.00"  47%  72%  30°F  37°F  30.04"
Sun 02:00 AM  52.5°F  47°F  calm  1 mph  none  0.00"  42%  71%  29°F  37°F  30.04"
Sun 01:00 AM  55.9°F  47°F  calm  1 mph  none  0.00"  36%  70%  28°F  38°F  30.03"
Sun 12:02 AM  57.0°F  48°F  calm  1 mph  none  0.00"  36%  68%  29°F  38°F  30.04"
Sat 11:00 PM  60.4°F  49°F  calm  calm  none  0.00"  32%  65%  29°F  38°F  30.04"
Sat 10:00 PM  59.0°F  51°F  calm  calm  none  0.00"  37%  63%  32°F  38°F  30.04"
Sat 09:00 PM  62.4°F  52°F  calm  1 mph  none  0.00"  32%  61%  31°F  38°F  30.03"
Sat 08:00 PM  67.3°F  54°F  calm  1 mph  none  0.00"  26%  57%  30°F  39°F  30.01"
Sat 07:00 PM  71.1°F  56°F  calm  1 mph  none  0.00"  23%  54%  30°F  39°F  29.99"
Sat 06:00 PM  73.0°F  59°F  calm  1 mph  none  0.00"  21%  50%  29°F  39°F  29.97"
Sat 05:00 PM  82.0°F  62°F  calm  2 mph  2 mph  0.00"  16%  44%  30°F  39°F  29.95"
Sat 04:00 PM  84.6°F  65°F  calm  2 mph  2 mph  0.00"  13%  39%  26°F  38°F  29.93"
Sat 03:00 PM  85.8°F  66°F  calm  2 mph  3 mph  0.00"  13%  38%  27°F  38°F  29.94"
Sat 02:00 PM  86.7°F  66°F  calm  2 mph  2 mph  0.00"  12%  38%  26°F  39°F  29.94"
Sat 01:00 PM  85.6°F  65°F  calm  2 mph  3 mph  0.00"  13%  40%  27°F  39°F  29.95"
Sat 12:00 PM  81.5°F  63°F  calm  2 mph  3 mph  0.00"  15%  44%  28°F  39°F  29.98"
Sat 11:00 AM  72.9°F  60°F  calm  1 mph  3 mph  0.00"  22%  48%  30°F  39°F  30.02"
Sat 10:00 AM  66.6°F  56°F  calm  1 mph  1 mph  0.00"  26%  55%  29°F  39°F  30.04"
Sat 09:00 AM  57.7°F  51°F  calm  1 mph  1 mph  0.00"  37%  64%  31°F  39°F  30.04"
Sat 08:00 AM  51.1°F  46°F  calm  1 mph  3 mph  0.00"  39%  73%  26°F  37°F  30.03"
Sat 07:00 AM  47.5°F  44°F  calm  1 mph  2 mph  0.00"  44%  75%  26°F  36°F  30.03"
Sat 06:00 AM  47.1°F  44°F  calm  1 mph  none  0.00"  41%  76%  24°F  36°F  30.03"
Sat 05:00 AM  48.0°F  44°F  calm  1 mph  3 mph  0.00"  43%  75%  26°F  37°F  30.01"
Sat 04:00 AM  49.8°F  45°F  calm  calm  none  0.00"  37%  74%  23°F  37°F  30.01"
Sat 03:00 AM  52.0°F  46°F  calm  1 mph  none  0.00"  33%  72%  23°F  37°F  30.02"
Sat 02:00 AM  50.7°F  47°F  calm  1 mph  3 mph  0.00"  38%  71%  25°F  37°F  30.03"
Sat 01:00 AM  52.7°F  47°F  1 mph S  1 mph  3 mph  0.00"  33%  70%  23°F  38°F  30.03"
Sat 12:02 AM  53.8°F  48°F  calm  1 mph  3 mph  0.00"  33%  68%  24°F  38°F  30.03"
Fri 11:00 PM  56.1°F  49°F  calm  calm  none  0.00"  31%  66%  25°F  38°F  30.03"
Fri 10:00 PM  57.9°F  51°F  calm  1 mph  none  0.00"  29%  63%  24°F  38°F  30.06"

  1. Current weather data. No green row appears if the current weather data is also the high or low for the current day.
  2. High temperature for the current day.
  3. Low temperature for the current day.

The San Jacinto, California weather pages are a service of WeatherCurrents. San Jacinto is located in the heart of the San Jacinto Valley, near Hemet, the Soboba Casino, and at the foot of the San Jacinto Mountains.
Copyright ©2021  WeatherCurrents. All rights reserved. - Submit questions and comments - Privacy Policy

This page automatically refreshes every 10 minutes.